sensor_id;sensor_type;location;lat;lon;timestamp;P1;durP1;ratioP1;P2;durP2;ratioP2
33593;SDS011;19920;52.242;20.940;2023-05-10T00:00:56;7.07;;;5.00;;
33593;SDS011;19920;52.242;20.940;2023-05-10T00:03:22;8.65;;;4.93;;
33593;SDS011;19920;52.242;20.940;2023-05-10T00:05:48;8.82;;;4.80;;
33593;SDS011;19920;52.242;20.940;2023-05-10T00:08:14;10.30;;;5.00;;
33593;SDS011;19920;52.242;20.940;2023-05-10T00:10:39;9.80;;;5.13;;
33593;SDS011;19920;52.242;20.940;2023-05-10T00:13:05;9.98;;;4.80;;
33593;SDS011;19920;52.242;20.940;2023-05-10T00:15:31;10.25;;;5.40;;
33593;SDS011;19920;52.242;20.940;2023-05-10T00:17:57;10.32;;;4.82;;
33593;SDS011;19920;52.242;20.940;2023-05-10T00:20:22;9.68;;;4.95;;
33593;SDS011;19920;52.242;20.940;2023-05-10T00:22:48;10.43;;;5.07;;
33593;SDS011;19920;52.242;20.940;2023-05-10T00:25:15;9.43;;;4.90;;
33593;SDS011;19920;52.242;20.940;2023-05-10T00:27:40;9.38;;;4.70;;
33593;SDS011;19920;52.242;20.940;2023-05-10T00:30:06;9.93;;;5.53;;
33593;SDS011;19920;52.242;20.940;2023-05-10T00:32:32;13.45;;;4.75;;
33593;SDS011;19920;52.242;20.940;2023-05-10T00:34:58;7.68;;;4.30;;
33593;SDS011;19920;52.242;20.940;2023-05-10T00:37:23;8.57;;;4.72;;
33593;SDS011;19920;52.242;20.940;2023-05-10T00:39:49;10.75;;;4.63;;
33593;SDS011;19920;52.242;20.940;2023-05-10T00:42:15;8.18;;;4.45;;
33593;SDS011;19920;52.242;20.940;2023-05-10T00:44:41;7.30;;;4.40;;
33593;SDS011;19920;52.242;20.940;2023-05-10T00:47:06;8.43;;;4.60;;
33593;SDS011;19920;52.242;20.940;2023-05-10T00:49:32;9.07;;;4.55;;
33593;SDS011;19920;52.242;20.940;2023-05-10T00:51:59;6.25;;;4.10;;
33593;SDS011;19920;52.242;20.940;2023-05-10T00:54:25;6.65;;;4.13;;
33593;SDS011;19920;52.242;20.940;2023-05-10T00:56:51;7.43;;;4.18;;
33593;SDS011;19920;52.242;20.940;2023-05-10T00:59:16;7.55;;;4.30;;
33593;SDS011;19920;52.242;20.940;2023-05-10T01:01:45;8.13;;;4.07;;
33593;SDS011;19920;52.242;20.940;2023-05-10T01:04:12;8.15;;;4.40;;
33593;SDS011;19920;52.242;20.940;2023-05-10T01:06:41;8.80;;;4.30;;
33593;SDS011;19920;52.242;20.940;2023-05-10T01:09:07;7.07;;;4.50;;
33593;SDS011;19920;52.242;20.940;2023-05-10T01:11:34;10.07;;;4.32;;
33593;SDS011;19920;52.242;20.940;2023-05-10T01:14:01;8.18;;;4.40;;
33593;SDS011;19920;52.242;20.940;2023-05-10T01:16:28;8.10;;;4.10;;
33593;SDS011;19920;52.242;20.940;2023-05-10T01:18:57;7.18;;;4.63;;
33593;SDS011;19920;52.242;20.940;2023-05-10T01:38:11;6.78;;;3.95;;
33593;SDS011;19920;52.242;20.940;2023-05-10T01:43:48;6.28;;;4.00;;
33593;SDS011;19920;52.242;20.940;2023-05-10T01:46:32;10.48;;;4.22;;
33593;SDS011;19920;52.242;20.940;2023-05-10T01:49:05;8.77;;;4.00;;
33593;SDS011;19920;52.242;20.940;2023-05-10T01:51:39;10.30;;;4.15;;
33593;SDS011;19920;52.242;20.940;2023-05-10T01:54:16;8.15;;;4.40;;
33593;SDS011;19920;52.242;20.940;2023-05-10T01:56:44;11.43;;;4.63;;
33593;SDS011;19920;52.242;20.940;2023-05-10T01:59:13;7.10;;;3.85;;
33593;SDS011;19920;52.242;20.940;2023-05-10T02:01:43;8.05;;;4.07;;
33593;SDS011;19920;52.242;20.940;2023-05-10T02:04:11;5.57;;;3.80;;
33593;SDS011;19920;52.242;20.940;2023-05-10T02:06:40;8.10;;;4.50;;
33593;SDS011;19920;52.242;20.940;2023-05-10T02:09:07;7.47;;;4.28;;
33593;SDS011;19920;52.242;20.940;2023-05-10T02:11:36;6.28;;;3.70;;
33593;SDS011;19920;52.242;20.940;2023-05-10T02:14:04;6.78;;;4.03;;
33593;SDS011;19920;52.242;20.940;2023-05-10T02:16:32;9.43;;;4.20;;
33593;SDS011;19920;52.242;20.940;2023-05-10T02:19:00;7.63;;;3.50;;
33593;SDS011;19920;52.242;20.940;2023-05-10T02:21:27;6.97;;;4.05;;
33593;SDS011;19920;52.242;20.940;2023-05-10T02:23:54;7.22;;;4.20;;
33593;SDS011;19920;52.242;20.940;2023-05-10T02:26:21;5.90;;;3.90;;
33593;SDS011;19920;52.242;20.940;2023-05-10T02:28:50;7.38;;;3.60;;
33593;SDS011;19920;52.242;20.940;2023-05-10T02:31:16;10.90;;;4.22;;
33593;SDS011;19920;52.242;20.940;2023-05-10T02:33:43;8.02;;;3.75;;
33593;SDS011;19920;52.242;20.940;2023-05-10T02:36:10;8.45;;;3.85;;
33593;SDS011;19920;52.242;20.940;2023-05-10T02:38:38;7.13;;;3.90;;
33593;SDS011;19920;52.242;20.940;2023-05-10T02:41:05;8.05;;;4.28;;
33593;SDS011;19920;52.242;20.940;2023-05-10T02:43:33;9.73;;;4.03;;
33593;SDS011;19920;52.242;20.940;2023-05-10T02:46:00;6.65;;;3.97;;
33593;SDS011;19920;52.242;20.940;2023-05-10T02:48:26;8.55;;;4.30;;
33593;SDS011;19920;52.242;20.940;2023-05-10T02:50:52;9.20;;;3.80;;
33593;SDS011;19920;52.242;20.940;2023-05-10T02:53:21;5.47;;;3.33;;
33593;SDS011;19920;52.242;20.940;2023-05-10T02:55:49;6.60;;;4.07;;
33593;SDS011;19920;52.242;20.940;2023-05-10T02:58:17;7.10;;;4.10;;
33593;SDS011;19920;52.242;20.940;2023-05-10T03:00:44;9.98;;;4.20;;
33593;SDS011;19920;52.242;20.940;2023-05-10T03:03:11;7.30;;;4.22;;
33593;SDS011;19920;52.242;20.940;2023-05-10T03:05:36;5.55;;;3.63;;
33593;SDS011;19920;52.242;20.940;2023-05-10T03:08:02;7.30;;;3.65;;
33593;SDS011;19920;52.242;20.940;2023-05-10T03:10:29;5.97;;;4.05;;
33593;SDS011;19920;52.242;20.940;2023-05-10T03:13:10;8.55;;;3.85;;
33593;SDS011;19920;52.242;20.940;2023-05-10T03:18:38;13.48;;;4.28;;
33593;SDS011;19920;52.242;20.940;2023-05-10T03:21:10;6.75;;;3.85;;
33593;SDS011;19920;52.242;20.940;2023-05-10T03:23:50;8.82;;;3.75;;
33593;SDS011;19920;52.242;20.940;2023-05-10T03:26:27;7.57;;;4.47;;
33593;SDS011;19920;52.242;20.940;2023-05-10T03:28:54;8.35;;;4.35;;
33593;SDS011;19920;52.242;20.940;2023-05-10T03:31:20;8.07;;;4.00;;
33593;SDS011;19920;52.242;20.940;2023-05-10T03:33:47;6.28;;;3.50;;
33593;SDS011;19920;52.242;20.940;2023-05-10T03:36:13;9.27;;;3.92;;
33593;SDS011;19920;52.242;20.940;2023-05-10T03:38:39;8.43;;;3.83;;
33593;SDS011;19920;52.242;20.940;2023-05-10T03:41:04;5.85;;;3.47;;
33593;SDS011;19920;52.242;20.940;2023-05-10T03:43:30;8.85;;;3.85;;
33593;SDS011;19920;52.242;20.940;2023-05-10T03:45:56;9.35;;;4.22;;
33593;SDS011;19920;52.242;20.940;2023-05-10T03:48:21;10.85;;;4.18;;
33593;SDS011;19920;52.242;20.940;2023-05-10T03:50:47;8.32;;;3.80;;
33593;SDS011;19920;52.242;20.940;2023-05-10T03:53:14;6.10;;;4.13;;
33593;SDS011;19920;52.242;20.940;2023-05-10T03:55:40;10.95;;;3.85;;
33593;SDS011;19920;52.242;20.940;2023-05-10T03:58:05;5.55;;;3.78;;
33593;SDS011;19920;52.242;20.940;2023-05-10T04:00:31;6.78;;;3.85;;
33593;SDS011;19920;52.242;20.940;2023-05-10T04:02:57;7.38;;;3.90;;
33593;SDS011;19920;52.242;20.940;2023-05-10T04:05:23;8.32;;;4.22;;
33593;SDS011;19920;52.242;20.940;2023-05-10T04:07:48;9.60;;;4.03;;
33593;SDS011;19920;52.242;20.940;2023-05-10T04:10:15;11.43;;;4.10;;
33593;SDS011;19920;52.242;20.940;2023-05-10T04:12:41;8.43;;;4.53;;
33593;SDS011;19920;52.242;20.940;2023-05-10T04:15:07;8.55;;;4.28;;
33593;SDS011;19920;52.242;20.940;2023-05-10T04:17:33;7.95;;;4.03;;
33593;SDS011;19920;52.242;20.940;2023-05-10T04:19:59;8.50;;;3.90;;
33593;SDS011;19920;52.242;20.940;2023-05-10T04:22:24;11.45;;;4.00;;
33593;SDS011;19920;52.242;20.940;2023-05-10T04:24:50;8.77;;;3.75;;
33593;SDS011;19920;52.242;20.940;2023-05-10T04:27:16;5.85;;;3.42;;
33593;SDS011;19920;52.242;20.940;2023-05-10T04:29:41;6.78;;;3.67;;
33593;SDS011;19920;52.242;20.940;2023-05-10T04:32:07;6.10;;;4.18;;
33593;SDS011;19920;52.242;20.940;2023-05-10T04:34:35;7.38;;;4.07;;
33593;SDS011;19920;52.242;20.940;2023-05-10T04:37:01;10.38;;;3.97;;
33593;SDS011;19920;52.242;20.940;2023-05-10T04:39:26;10.48;;;4.07;;
33593;SDS011;19920;52.242;20.940;2023-05-10T04:41:52;6.25;;;3.75;;
33593;SDS011;19920;52.242;20.940;2023-05-10T04:44:17;7.07;;;4.07;;
33593;SDS011;19920;52.242;20.940;2023-05-10T04:46:43;9.00;;;3.65;;
33593;SDS011;19920;52.242;20.940;2023-05-10T04:49:09;6.88;;;3.58;;
33593;SDS011;19920;52.242;20.940;2023-05-10T04:51:34;6.85;;;3.83;;
33593;SDS011;19920;52.242;20.940;2023-05-10T04:54:00;8.27;;;3.72;;
33593;SDS011;19920;52.242;20.940;2023-05-10T04:56:25;9.60;;;4.05;;
33593;SDS011;19920;52.242;20.940;2023-05-10T04:58:51;7.53;;;3.33;;
33593;SDS011;19920;52.242;20.940;2023-05-10T05:01:17;13.88;;;4.10;;
33593;SDS011;19920;52.242;20.940;2023-05-10T05:03:42;9.38;;;4.80;;
33593;SDS011;19920;52.242;20.940;2023-05-10T05:06:08;11.70;;;3.65;;
33593;SDS011;19920;52.242;20.940;2023-05-10T05:08:34;8.77;;;3.55;;
33593;SDS011;19920;52.242;20.940;2023-05-10T05:10:59;8.27;;;3.85;;
33593;SDS011;19920;52.242;20.940;2023-05-10T05:13:25;9.32;;;3.80;;
33593;SDS011;19920;52.242;20.940;2023-05-10T05:15:50;6.85;;;3.47;;
33593;SDS011;19920;52.242;20.940;2023-05-10T05:18:16;6.50;;;4.00;;
33593;SDS011;19920;52.242;20.940;2023-05-10T05:20:42;7.00;;;3.90;;
33593;SDS011;19920;52.242;20.940;2023-05-10T05:23:07;9.63;;;3.67;;
33593;SDS011;19920;52.242;20.940;2023-05-10T05:25:33;5.43;;;3.42;;
33593;SDS011;19920;52.242;20.940;2023-05-10T05:27:59;10.15;;;4.03;;
33593;SDS011;19920;52.242;20.940;2023-05-10T05:30:24;6.78;;;3.60;;
33593;SDS011;19920;52.242;20.940;2023-05-10T05:32:50;9.95;;;3.90;;
33593;SDS011;19920;52.242;20.940;2023-05-10T05:35:16;7.03;;;3.60;;
33593;SDS011;19920;52.242;20.940;2023-05-10T05:37:41;8.60;;;3.80;;
33593;SDS011;19920;52.242;20.940;2023-05-10T05:40:07;9.32;;;3.63;;
33593;SDS011;19920;52.242;20.940;2023-05-10T05:42:33;7.88;;;3.65;;
33593;SDS011;19920;52.242;20.940;2023-05-10T05:44:59;7.93;;;3.80;;
33593;SDS011;19920;52.242;20.940;2023-05-10T05:47:24;14.43;;;4.13;;
33593;SDS011;19920;52.242;20.940;2023-05-10T05:49:50;8.90;;;3.53;;
33593;SDS011;19920;52.242;20.940;2023-05-10T05:52:16;5.90;;;3.10;;
33593;SDS011;19920;52.242;20.940;2023-05-10T05:54:41;8.77;;;3.58;;
33593;SDS011;19920;52.242;20.940;2023-05-10T05:57:07;8.75;;;3.47;;
33593;SDS011;19920;52.242;20.940;2023-05-10T05:59:33;7.10;;;3.35;;
33593;SDS011;19920;52.242;20.940;2023-05-10T06:01:59;8.95;;;3.13;;
33593;SDS011;19920;52.242;20.940;2023-05-10T06:04:25;8.82;;;3.40;;
33593;SDS011;19920;52.242;20.940;2023-05-10T06:06:51;6.50;;;3.33;;
33593;SDS011;19920;52.242;20.940;2023-05-10T06:09:16;11.60;;;3.35;;
33593;SDS011;19920;52.242;20.940;2023-05-10T06:11:42;11.70;;;3.47;;
33593;SDS011;19920;52.242;20.940;2023-05-10T06:14:08;9.65;;;3.40;;
33593;SDS011;19920;52.242;20.940;2023-05-10T06:16:34;9.13;;;3.55;;
33593;SDS011;19920;52.242;20.940;2023-05-10T06:19:00;6.28;;;3.33;;
33593;SDS011;19920;52.242;20.940;2023-05-10T06:21:26;8.13;;;3.33;;
33593;SDS011;19920;52.242;20.940;2023-05-10T06:23:52;10.25;;;3.67;;
33593;SDS011;19920;52.242;20.940;2023-05-10T06:26:17;8.15;;;3.78;;
33593;SDS011;19920;52.242;20.940;2023-05-10T06:28:43;6.35;;;3.92;;
33593;SDS011;19920;52.242;20.940;2023-05-10T06:31:08;7.72;;;3.42;;
33593;SDS011;19920;52.242;20.940;2023-05-10T06:33:36;8.35;;;3.15;;
33593;SDS011;19920;52.242;20.940;2023-05-10T06:36:02;6.63;;;3.05;;
33593;SDS011;19920;52.242;20.940;2023-05-10T06:38:27;6.65;;;3.65;;
33593;SDS011;19920;52.242;20.940;2023-05-10T06:40:53;9.38;;;3.67;;
33593;SDS011;19920;52.242;20.940;2023-05-10T06:43:19;12.20;;;4.40;;
33593;SDS011;19920;52.242;20.940;2023-05-10T06:45:44;8.27;;;3.17;;
33593;SDS011;19920;52.242;20.940;2023-05-10T06:48:10;8.45;;;3.28;;
33593;SDS011;19920;52.242;20.940;2023-05-10T06:50:36;10.75;;;3.33;;
33593;SDS011;19920;52.242;20.940;2023-05-10T06:53:01;5.03;;;2.80;;
33593;SDS011;19920;52.242;20.940;2023-05-10T06:55:27;6.07;;;3.20;;
33593;SDS011;19920;52.242;20.940;2023-05-10T06:57:53;7.10;;;3.08;;
33593;SDS011;19920;52.242;20.940;2023-05-10T07:00:19;7.45;;;3.25;;
33593;SDS011;19920;52.242;20.940;2023-05-10T07:02:45;5.97;;;3.05;;
33593;SDS011;19920;52.242;20.940;2023-05-10T07:05:12;6.97;;;2.97;;
33593;SDS011;19920;52.242;20.940;2023-05-10T07:07:37;7.50;;;2.92;;
33593;SDS011;19920;52.242;20.940;2023-05-10T07:10:03;6.95;;;2.92;;
33593;SDS011;19920;52.242;20.940;2023-05-10T07:12:29;6.15;;;2.67;;
33593;SDS011;19920;52.242;20.940;2023-05-10T07:14:55;4.10;;;2.45;;
33593;SDS011;19920;52.242;20.940;2023-05-10T07:17:21;5.88;;;2.50;;
33593;SDS011;19920;52.242;20.940;2023-05-10T07:19:46;6.82;;;2.10;;
33593;SDS011;19920;52.242;20.940;2023-05-10T07:22:12;5.47;;;2.63;;
33593;SDS011;19920;52.242;20.940;2023-05-10T07:24:37;5.75;;;2.35;;
33593;SDS011;19920;52.242;20.940;2023-05-10T07:27:03;4.55;;;2.33;;
33593;SDS011;19920;52.242;20.940;2023-05-10T07:29:29;4.38;;;2.28;;
33593;SDS011;19920;52.242;20.940;2023-05-10T07:31:55;4.82;;;2.00;;
33593;SDS011;19920;52.242;20.940;2023-05-10T07:34:21;4.70;;;2.15;;
33593;SDS011;19920;52.242;20.940;2023-05-10T07:36:47;5.85;;;1.95;;
33593;SDS011;19920;52.242;20.940;2023-05-10T07:39:12;9.00;;;2.67;;
33593;SDS011;19920;52.242;20.940;2023-05-10T07:41:38;6.50;;;2.20;;
33593;SDS011;19920;52.242;20.940;2023-05-10T07:44:04;8.18;;;2.42;;
33593;SDS011;19920;52.242;20.940;2023-05-10T07:46:31;5.72;;;2.05;;
33593;SDS011;19920;52.242;20.940;2023-05-10T07:48:56;8.27;;;2.45;;
33593;SDS011;19920;52.242;20.940;2023-05-10T07:51:22;9.27;;;2.15;;
33593;SDS011;19920;52.242;20.940;2023-05-10T07:53:48;10.13;;;2.03;;
33593;SDS011;19920;52.242;20.940;2023-05-10T07:56:21;6.53;;;1.75;;
33593;SDS011;19920;52.242;20.940;2023-05-10T07:58:46;4.07;;;2.00;;
33593;SDS011;19920;52.242;20.940;2023-05-10T08:01:12;3.60;;;1.58;;
33593;SDS011;19920;52.242;20.940;2023-05-10T08:03:38;6.30;;;1.80;;
33593;SDS011;19920;52.242;20.940;2023-05-10T08:06:03;5.45;;;1.80;;
33593;SDS011;19920;52.242;20.940;2023-05-10T08:08:29;6.50;;;2.00;;
33593;SDS011;19920;52.242;20.940;2023-05-10T08:10:55;4.93;;;2.15;;
33593;SDS011;19920;52.242;20.940;2023-05-10T08:13:21;5.80;;;1.70;;
33593;SDS011;19920;52.242;20.940;2023-05-10T08:15:46;7.95;;;1.85;;
33593;SDS011;19920;52.242;20.940;2023-05-10T08:18:12;8.07;;;1.77;;
33593;SDS011;19920;52.242;20.940;2023-05-10T08:20:38;7.78;;;1.88;;
33593;SDS011;19920;52.242;20.940;2023-05-10T08:23:04;2.58;;;1.65;;
33593;SDS011;19920;52.242;20.940;2023-05-10T08:25:30;11.32;;;1.92;;
33593;SDS011;19920;52.242;20.940;2023-05-10T08:27:56;2.95;;;1.77;;
33593;SDS011;19920;52.242;20.940;2023-05-10T08:30:22;7.25;;;1.50;;
33593;SDS011;19920;52.242;20.940;2023-05-10T08:32:48;4.32;;;1.65;;
33593;SDS011;19920;52.242;20.940;2023-05-10T08:35:15;3.95;;;1.90;;
33593;SDS011;19920;52.242;20.940;2023-05-10T08:37:41;10.80;;;1.98;;
33593;SDS011;19920;52.242;20.940;2023-05-10T08:40:06;11.48;;;1.73;;
33593;SDS011;19920;52.242;20.940;2023-05-10T08:42:36;4.55;;;1.80;;
33593;SDS011;19920;52.242;20.940;2023-05-10T08:45:08;6.20;;;1.63;;
33593;SDS011;19920;52.242;20.940;2023-05-10T08:47:36;3.38;;;1.80;;
33593;SDS011;19920;52.242;20.940;2023-05-10T08:50:03;4.35;;;1.65;;
33593;SDS011;19920;52.242;20.940;2023-05-10T08:52:29;7.65;;;2.03;;
33593;SDS011;19920;52.242;20.940;2023-05-10T08:54:57;5.88;;;1.70;;
33593;SDS011;19920;52.242;20.940;2023-05-10T08:57:23;5.50;;;1.60;;
33593;SDS011;19920;52.242;20.940;2023-05-10T08:59:49;3.47;;;1.80;;
33593;SDS011;19920;52.242;20.940;2023-05-10T09:02:16;4.07;;;1.70;;
33593;SDS011;19920;52.242;20.940;2023-05-10T09:04:44;5.33;;;1.90;;
33593;SDS011;19920;52.242;20.940;2023-05-10T09:07:10;10.00;;;2.20;;
33593;SDS011;19920;52.242;20.940;2023-05-10T09:09:36;12.15;;;2.13;;
33593;SDS011;19920;52.242;20.940;2023-05-10T09:12:02;2.97;;;1.70;;
33593;SDS011;19920;52.242;20.940;2023-05-10T09:14:28;5.00;;;1.58;;
33593;SDS011;19920;52.242;20.940;2023-05-10T09:16:55;5.88;;;1.63;;
33593;SDS011;19920;52.242;20.940;2023-05-10T09:19:21;4.50;;;1.60;;
33593;SDS011;19920;52.242;20.940;2023-05-10T09:21:47;7.00;;;1.83;;
33593;SDS011;19920;52.242;20.940;2023-05-10T09:24:14;4.18;;;2.03;;
33593;SDS011;19920;52.242;20.940;2023-05-10T09:26:46;6.88;;;1.95;;
33593;SDS011;19920;52.242;20.940;2023-05-10T09:29:13;2.90;;;1.60;;
33593;SDS011;19920;52.242;20.940;2023-05-10T09:31:57;2.67;;;1.70;;
33593;SDS011;19920;52.242;20.940;2023-05-10T09:34:32;3.90;;;1.98;;
33593;SDS011;19920;52.242;20.940;2023-05-10T09:37:00;4.40;;;1.73;;
33593;SDS011;19920;52.242;20.940;2023-05-10T09:39:34;5.45;;;1.80;;
33593;SDS011;19920;52.242;20.940;2023-05-10T09:42:03;4.50;;;1.95;;
33593;SDS011;19920;52.242;20.940;2023-05-10T09:44:33;9.52;;;2.03;;
33593;SDS011;19920;52.242;20.940;2023-05-10T09:47:00;10.70;;;2.30;;
33593;SDS011;19920;52.242;20.940;2023-05-10T09:49:26;6.13;;;2.25;;
33593;SDS011;19920;52.242;20.940;2023-05-10T09:54:28;4.95;;;2.03;;
33593;SDS011;19920;52.242;20.940;2023-05-10T09:56:54;2.90;;;2.00;;
33593;SDS011;19920;52.242;20.940;2023-05-10T09:59:20;12.18;;;2.80;;
33593;SDS011;19920;52.242;20.940;2023-05-10T10:01:49;6.03;;;2.28;;
33593;SDS011;19920;52.242;20.940;2023-05-10T10:04:16;6.70;;;2.00;;
33593;SDS011;19920;52.242;20.940;2023-05-10T10:06:42;5.93;;;1.88;;
33593;SDS011;19920;52.242;20.940;2023-05-10T10:09:08;8.77;;;2.20;;
33593;SDS011;19920;52.242;20.940;2023-05-10T10:11:37;12.52;;;2.75;;
33593;SDS011;19920;52.242;20.940;2023-05-10T10:14:03;10.37;;;2.23;;
33593;SDS011;19920;52.242;20.940;2023-05-10T10:16:30;6.60;;;2.30;;
33593;SDS011;19920;52.242;20.940;2023-05-10T10:18:56;5.30;;;1.60;;
33593;SDS011;19920;52.242;20.940;2023-05-10T10:21:22;5.10;;;1.73;;
33593;SDS011;19920;52.242;20.940;2023-05-10T10:23:48;4.97;;;2.03;;
33593;SDS011;19920;52.242;20.940;2023-05-10T10:26:14;5.45;;;1.80;;
33593;SDS011;19920;52.242;20.940;2023-05-10T10:31:21;2.97;;;1.73;;
33593;SDS011;19920;52.242;20.940;2023-05-10T10:36:23;6.22;;;1.88;;
33593;SDS011;19920;52.242;20.940;2023-05-10T10:54:52;5.00;;;1.80;;
33593;SDS011;19920;52.242;20.940;2023-05-10T10:57:23;4.10;;;1.60;;
33593;SDS011;19920;52.242;20.940;2023-05-10T10:59:51;6.88;;;2.15;;
33593;SDS011;19920;52.242;20.940;2023-05-10T11:02:42;7.50;;;1.65;;
33593;SDS011;19920;52.242;20.940;2023-05-10T11:10:52;6.63;;;2.00;;
33593;SDS011;19920;52.242;20.940;2023-05-10T11:16:12;4.45;;;1.67;;
33593;SDS011;19920;52.242;20.940;2023-05-10T11:18:38;5.63;;;1.87;;
33593;SDS011;19920;52.242;20.940;2023-05-10T11:21:04;4.15;;;1.83;;
33593;SDS011;19920;52.242;20.940;2023-05-10T11:23:57;6.60;;;2.20;;
33593;SDS011;19920;52.242;20.940;2023-05-10T11:26:25;5.15;;;1.95;;
33593;SDS011;19920;52.242;20.940;2023-05-10T11:28:55;5.85;;;1.88;;
33593;SDS011;19920;52.242;20.940;2023-05-10T11:31:22;5.82;;;1.70;;
33593;SDS011;19920;52.242;20.940;2023-05-10T11:33:49;7.40;;;2.00;;
33593;SDS011;19920;52.242;20.940;2023-05-10T11:36:20;3.28;;;1.80;;
33593;SDS011;19920;52.242;20.940;2023-05-10T11:38:47;7.40;;;1.77;;
33593;SDS011;19920;52.242;20.940;2023-05-10T11:41:14;6.22;;;1.77;;
33593;SDS011;19920;52.242;20.940;2023-05-10T11:43:42;3.85;;;2.15;;
33593;SDS011;19920;52.242;20.940;2023-05-10T11:46:10;4.25;;;2.17;;
33593;SDS011;19920;52.242;20.940;2023-05-10T11:48:38;6.47;;;1.77;;
33593;SDS011;19920;52.242;20.940;2023-05-10T11:51:04;5.10;;;2.03;;
33593;SDS011;19920;52.242;20.940;2023-05-10T11:53:32;5.47;;;1.67;;
33593;SDS011;19920;52.242;20.940;2023-05-10T11:56:05;5.60;;;2.00;;
33593;SDS011;19920;52.242;20.940;2023-05-10T11:58:33;5.65;;;1.70;;
33593;SDS011;19920;52.242;20.940;2023-05-10T12:01:00;8.27;;;1.83;;
33593;SDS011;19920;52.242;20.940;2023-05-10T12:03:26;4.85;;;1.83;;
33593;SDS011;19920;52.242;20.940;2023-05-10T12:05:53;4.97;;;1.73;;
33593;SDS011;19920;52.242;20.940;2023-05-10T12:08:21;5.88;;;2.08;;
33593;SDS011;19920;52.242;20.940;2023-05-10T12:10:48;8.57;;;1.80;;
33593;SDS011;19920;52.242;20.940;2023-05-10T12:13:15;3.78;;;1.70;;
33593;SDS011;19920;52.242;20.940;2023-05-10T12:15:42;6.35;;;1.80;;
33593;SDS011;19920;52.242;20.940;2023-05-10T12:18:09;4.60;;;2.00;;
33593;SDS011;19920;52.242;20.940;2023-05-10T12:20:35;7.05;;;1.63;;
33593;SDS011;19920;52.242;20.940;2023-05-10T12:23:01;3.47;;;1.63;;
33593;SDS011;19920;52.242;20.940;2023-05-10T12:25:32;9.35;;;1.98;;
33593;SDS011;19920;52.242;20.940;2023-05-10T12:28:00;4.20;;;1.77;;
33593;SDS011;19920;52.242;20.940;2023-05-10T12:30:29;5.78;;;1.60;;
33593;SDS011;19920;52.242;20.940;2023-05-10T12:33:16;4.10;;;1.70;;
33593;SDS011;19920;52.242;20.940;2023-05-10T12:35:49;5.55;;;1.90;;
33593;SDS011;19920;52.242;20.940;2023-05-10T12:38:26;6.65;;;1.70;;
33593;SDS011;19920;52.242;20.940;2023-05-10T12:40:53;4.38;;;1.63;;
33593;SDS011;19920;52.242;20.940;2023-05-10T12:43:19;5.20;;;1.70;;
33593;SDS011;19920;52.242;20.940;2023-05-10T12:45:45;5.70;;;1.98;;
33593;SDS011;19920;52.242;20.940;2023-05-10T12:48:13;3.88;;;2.10;;
33593;SDS011;19920;52.242;20.940;2023-05-10T12:50:38;6.93;;;1.70;;
33593;SDS011;19920;52.242;20.940;2023-05-10T12:53:04;5.25;;;1.90;;
33593;SDS011;19920;52.242;20.940;2023-05-10T12:55:30;5.97;;;2.33;;
33593;SDS011;19920;52.242;20.940;2023-05-10T12:57:55;7.22;;;2.00;;
33593;SDS011;19920;52.242;20.940;2023-05-10T13:00:21;5.32;;;1.75;;
33593;SDS011;19920;52.242;20.940;2023-05-10T13:02:47;6.30;;;1.60;;
33593;SDS011;19920;52.242;20.940;2023-05-10T13:05:13;5.13;;;1.88;;
33593;SDS011;19920;52.242;20.940;2023-05-10T13:07:38;3.38;;;1.67;;
33593;SDS011;19920;52.242;20.940;2023-05-10T13:10:05;2.40;;;1.60;;
33593;SDS011;19920;52.242;20.940;2023-05-10T13:12:31;4.28;;;1.90;;
33593;SDS011;19920;52.242;20.940;2023-05-10T13:14:57;4.13;;;1.85;;
33593;SDS011;19920;52.242;20.940;2023-05-10T13:17:22;4.28;;;1.63;;
33593;SDS011;19920;52.242;20.940;2023-05-10T13:19:50;4.20;;;1.50;;
33593;SDS011;19920;52.242;20.940;2023-05-10T13:22:15;8.60;;;1.77;;
33593;SDS011;19920;52.242;20.940;2023-05-10T13:24:41;6.55;;;2.20;;
33593;SDS011;19920;52.242;20.940;2023-05-10T13:27:06;3.97;;;1.63;;
33593;SDS011;19920;52.242;20.940;2023-05-10T13:29:32;4.03;;;1.85;;
33593;SDS011;19920;52.242;20.940;2023-05-10T13:31:58;3.47;;;1.80;;
33593;SDS011;19920;52.242;20.940;2023-05-10T13:34:24;6.28;;;2.00;;
33593;SDS011;19920;52.242;20.940;2023-05-10T13:36:50;8.57;;;1.70;;
33593;SDS011;19920;52.242;20.940;2023-05-10T13:39:16;6.13;;;2.17;;
33593;SDS011;19920;52.242;20.940;2023-05-10T13:41:42;6.32;;;1.75;;
33593;SDS011;19920;52.242;20.940;2023-05-10T13:44:07;5.90;;;1.70;;
33593;SDS011;19920;52.242;20.940;2023-05-10T13:46:33;2.75;;;1.65;;
33593;SDS011;19920;52.242;20.940;2023-05-10T13:48:59;3.35;;;1.90;;
33593;SDS011;19920;52.242;20.940;2023-05-10T13:51:24;5.72;;;1.80;;
33593;SDS011;19920;52.242;20.940;2023-05-10T13:53:50;4.75;;;1.55;;
33593;SDS011;19920;52.242;20.940;2023-05-10T13:56:15;3.97;;;1.85;;
33593;SDS011;19920;52.242;20.940;2023-05-10T13:58:41;4.28;;;1.50;;
33593;SDS011;19920;52.242;20.940;2023-05-10T14:01:07;5.40;;;1.90;;
33593;SDS011;19920;52.242;20.940;2023-05-10T14:03:32;3.22;;;1.80;;
33593;SDS011;19920;52.242;20.940;2023-05-10T14:05:58;3.47;;;1.83;;
33593;SDS011;19920;52.242;20.940;2023-05-10T14:08:24;5.50;;;1.50;;
33593;SDS011;19920;52.242;20.940;2023-05-10T14:10:51;3.92;;;1.80;;
33593;SDS011;19920;52.242;20.940;2023-05-10T14:13:17;4.75;;;1.85;;
33593;SDS011;19920;52.242;20.940;2023-05-10T14:15:43;5.28;;;1.70;;
33593;SDS011;19920;52.242;20.940;2023-05-10T14:18:09;6.95;;;2.00;;
33593;SDS011;19920;52.242;20.940;2023-05-10T14:20:34;4.78;;;2.00;;
33593;SDS011;19920;52.242;20.940;2023-05-10T14:23:00;4.25;;;1.80;;
33593;SDS011;19920;52.242;20.940;2023-05-10T14:25:26;8.60;;;1.98;;
33593;SDS011;19920;52.242;20.940;2023-05-10T14:27:51;4.32;;;1.90;;
33593;SDS011;19920;52.242;20.940;2023-05-10T14:30:19;5.05;;;1.70;;
33593;SDS011;19920;52.242;20.940;2023-05-10T14:32:45;5.65;;;1.85;;
33593;SDS011;19920;52.242;20.940;2023-05-10T14:35:11;3.17;;;1.95;;
33593;SDS011;19920;52.242;20.940;2023-05-10T14:37:37;5.20;;;2.20;;
33593;SDS011;19920;52.242;20.940;2023-05-10T14:40:03;8.25;;;2.08;;
33593;SDS011;19920;52.242;20.940;2023-05-10T14:42:29;4.95;;;2.40;;
33593;SDS011;19920;52.242;20.940;2023-05-10T14:44:56;8.45;;;1.95;;
33593;SDS011;19920;52.242;20.940;2023-05-10T14:47:21;4.20;;;1.90;;
33593;SDS011;19920;52.242;20.940;2023-05-10T14:49:47;3.55;;;2.40;;
33593;SDS011;19920;52.242;20.940;2023-05-10T14:52:13;8.18;;;2.20;;
33593;SDS011;19920;52.242;20.940;2023-05-10T14:54:39;2.33;;;2.13;;
33593;SDS011;19920;52.242;20.940;2023-05-10T14:57:05;4.97;;;2.33;;
33593;SDS011;19920;52.242;20.940;2023-05-10T14:59:31;4.68;;;2.33;;
33593;SDS011;19920;52.242;20.940;2023-05-10T15:01:57;6.03;;;1.95;;
33593;SDS011;19920;52.242;20.940;2023-05-10T15:04:22;2.40;;;1.77;;
33593;SDS011;19920;52.242;20.940;2023-05-10T15:06:48;3.35;;;1.75;;
33593;SDS011;19920;52.242;20.940;2023-05-10T15:09:14;2.85;;;1.92;;
33593;SDS011;19920;52.242;20.940;2023-05-10T15:11:41;3.80;;;2.00;;
33593;SDS011;19920;52.242;20.940;2023-05-10T15:14:07;5.82;;;2.08;;
33593;SDS011;19920;52.242;20.940;2023-05-10T15:16:32;5.20;;;1.83;;
33593;SDS011;19920;52.242;20.940;2023-05-10T15:18:58;5.40;;;1.90;;
33593;SDS011;19920;52.242;20.940;2023-05-10T15:21:24;4.93;;;2.30;;
33593;SDS011;19920;52.242;20.940;2023-05-10T15:23:49;3.53;;;2.00;;
33593;SDS011;19920;52.242;20.940;2023-05-10T15:26:15;4.03;;;2.10;;